Time;durP1;ratioP1;P1;durP2;ratioP2;P2;SDS_P1;SDS_P2;PMS_P1;PMS_P2;Temp;Humidity;BMP_temperature;BMP_pressure;BME280_temperature;BME280_humidity;BME280_pressure;Samples;Min_cycle;Max_cycle;Signal;HPM_P1;HPM_P2
2021/10/02 00:34:44;;;;;;;6.97;5.60;;;;;;;5.95;77.61;97759.41;1728563;82;25705;-87
2021/10/02 00:37:06;;;;;;;11.85;6.53;;;;;;;5.95;77.61;97754.05;1730851;81;27407;-88
2021/10/02 00:44:51;;;;;;;9.70;6.15;;;;;;;5.94;77.52;97750.20;1733393;82;25731;-86
2021/10/02 00:47:20;;;;;;;8.53;5.78;;;;;;;5.94;77.56;97744.84;1720454;82;26327;-91
2021/10/02 00:49:48;;;;;;;13.53;6.00;;;;;;;5.93;77.57;97745.34;1744008;82;26761;-86
2021/10/02 00:52:18;;;;;;;9.80;5.85;;;;;;;5.90;77.55;97740.86;1726125;82;25801;-91
2021/10/02 00:54:46;;;;;;;13.78;6.20;;;;;;;5.91;77.66;97743.38;1750923;82;25748;-92
2021/10/02 00:57:13;;;;;;;9.63;5.92;;;;;;;5.91;77.65;97742.03;1749084;82;25699;-90
2021/10/02 00:59:41;;;;;;;9.93;5.83;;;;;;;5.88;77.65;97732.13;1738002;81;25343;-95
2021/10/02 01:02:27;;;;;;;17.05;6.37;;;;;;;5.89;77.70;97740.53;1719664;82;28259;-87
2021/10/02 01:05:30;;;;;;;10.75;7.12;;;;;;;5.83;77.60;97739.83;1713339;81;26538;-86
2021/10/02 01:08:44;;;;;;;11.55;7.00;;;;;;;5.73;77.60;97734.69;1695681;84;25868;-88
2021/10/02 01:11:40;;;;;;;9.35;6.65;;;;;;;5.72;77.76;97741.05;1703231;83;25689;-92
2021/10/02 01:14:21;;;;;;;11.75;7.62;;;;;;;5.70;77.75;97736.36;1660688;82;25369;-89
2021/10/02 01:16:52;;;;;;;10.13;6.67;;;;;;;5.69;77.77;97737.37;1716538;82;28327;-88
2021/10/02 01:19:50;;;;;;;9.30;6.80;;;;;;;5.69;77.77;97733.35;1719417;81;25338;-89
2021/10/02 01:22:40;;;;;;;9.08;6.58;;;;;;;5.60;77.66;97731.72;1730333;82;25776;-86
2021/10/02 01:25:14;;;;;;;14.40;7.30;;;;;;;5.61;77.76;97737.41;1708029;82;26477;-86
2021/10/02 01:27:53;;;;;;;12.78;7.70;;;;;;;5.58;77.69;97736.41;1726154;82;25385;-94
2021/10/02 01:33:43;;;;;;;11.63;6.33;;;;;;;5.54;77.80;97730.58;1701632;82;26252;-87
2021/10/02 01:36:25;;;;;;;10.72;6.50;;;;;;;5.50;77.79;97727.06;1725575;82;26417;-86
2021/10/02 01:47:16;;;;;;;10.38;6.72;;;;;;;5.28;78.18;97722.77;1709065;82;25627;-95
2021/10/02 01:49:51;;;;;;;9.03;5.83;;;;;;;5.29;78.12;97728.96;1718659;82;26347;-87
2021/10/02 01:52:24;;;;;;;10.70;6.50;;;;;;;5.28;78.13;97721.44;1726974;81;25707;-89
2021/10/02 01:54:55;;;;;;;8.80;5.78;;;;;;;5.29;78.13;97718.26;1717361;82;25739;-94
2021/10/02 01:57:29;;;;;;;10.38;6.17;;;;;;;5.29;78.12;97718.26;1715497;82;28052;-92
2021/10/02 01:59:57;;;;;;;8.05;5.62;;;;;;;5.30;78.12;97716.75;1732151;81;25871;-86
2021/10/02 02:02:30;;;;;;;9.55;5.37;;;;;;;5.30;78.07;97722.10;1723253;82;25794;-87
2021/10/02 02:04:57;;;;;;;;;;;;;;;5.32;78.16;97717.39;1729615;81;25818;-87
2021/10/02 02:07:27;;;;;;;15.38;6.40;;;;;;;5.32;78.11;97718.73;1704148;82;25288;-95
2021/10/02 02:09:57;;;;;;;8.95;5.70;;;;;;;5.28;78.13;97721.44;1724938;82;28207;-93
2021/10/02 02:12:32;;;;;;;14.15;6.62;;;;;;;5.28;78.23;97719.26;1719096;82;25732;-94
2021/10/02 02:15:07;;;;;;;11.40;5.87;;;;;;;5.29;78.30;97718.26;1729206;82;25848;-87
2021/10/02 02:17:37;;;;;;;8.88;5.97;;;;;;;5.30;78.32;97719.42;1702321;82;26167;-86
2021/10/02 02:20:07;;;;;;;12.65;5.85;;;;;;;5.28;78.26;97713.41;1713981;82;25776;-87
2021/10/02 02:22:34;;;;;;;7.55;5.47;;;;;;;5.28;78.21;97705.88;1711680;82;27543;-87
2021/10/02 02:25:00;;;;;;;12.75;6.12;;;;;;;5.26;78.16;97706.04;1731296;82;25842;-86
2021/10/02 02:27:28;;;;;;;8.43;5.70;;;;;;;5.26;78.23;97708.72;1707266;82;25339;-86
2021/10/02 02:29:55;;;;;;;7.95;5.72;;;;;;;5.27;78.27;97703.70;1703588;82;25857;-94
2021/10/02 02:32:23;;;;;;;9.68;5.60;;;;;;;5.29;78.23;97712.91;1727769;82;25778;-86
2021/10/02 02:34:50;;;;;;;12.10;6.00;;;;;;;5.28;78.21;97703.20;1711216;82;27305;-90
2021/10/02 02:37:17;;;;;;;9.30;6.10;;;;;;;5.27;78.22;97710.39;1702451;82;25799;-87
2021/10/02 02:39:44;;;;;;;8.98;5.50;;;;;;;5.23;78.17;97702.36;1706601;82;25791;-93
2021/10/02 02:42:10;;;;;;;10.75;6.35;;;;;;;5.21;78.13;97699.52;1708179;81;26513;-87
2021/10/02 02:44:37;;;;;;;10.20;5.00;;;;;;;5.21;78.18;97695.00;1722699;82;25751;-93
2021/10/02 02:47:11;;;;;;;8.60;5.72;;;;;;;5.20;78.22;97691.98;1729258;82;27568;-93
2021/10/02 02:49:52;;;;;;;8.55;5.05;;;;;;;5.21;78.18;97691.48;1729392;81;25793;-87
2021/10/02 02:52:23;;;;;;;8.90;5.42;;;;;;;5.20;78.21;97695.17;1711730;82;25974;-88
2021/10/02 02:55:07;;;;;;;10.72;5.65;;;;;;;5.16;78.16;97696.03;1728788;82;25867;-90
2021/10/02 02:57:51;;;;;;;10.80;5.72;;;;;;;5.14;78.24;97695.36;1713500;82;26016;-92
2021/10/02 03:00:23;;;;;;;8.45;5.95;;;;;;;5.13;78.27;97697.70;1731252;81;27557;-87
2021/10/02 03:02:57;;;;;;;11.25;5.55;;;;;;;5.13;78.29;97698.20;1697818;84;25898;-86
2021/10/02 03:05:27;;;;;;;12.47;7.03;;;;;;;5.13;78.25;97692.34;1723050;81;25745;-86
2021/10/02 03:08:10;;;;;;;9.90;5.42;;;;;;;5.11;78.15;97694.36;1724668;81;25851;-86
2021/10/02 03:10:40;;;;;;;9.45;5.47;;;;;;;5.07;78.14;97693.05;1697989;82;25828;-86
2021/10/02 03:13:13;;;;;;;7.80;5.25;;;;;;;5.03;78.16;97685.85;1732114;81;27320;-86
2021/10/02 03:15:42;;;;;;;9.05;5.75;;;;;;;5.03;78.21;97689.03;1705901;82;25852;-85
2021/10/02 03:18:11;;;;;;;14.45;5.87;;;;;;;5.03;78.24;97687.69;1717773;81;25746;-92
2021/10/02 03:20:39;;;;;;;14.53;6.78;;;;;;;5.03;78.28;97689.03;1698448;82;25963;-85
2021/10/02 03:23:07;;;;;;;10.93;6.17;;;;;;;5.04;78.20;97682.67;1731894;82;25302;-86
2021/10/02 03:25:34;;;;;;;8.60;5.65;;;;;;;5.01;78.13;97684.34;1711168;82;27339;-86
2021/10/02 03:28:03;;;;;;;7.78;4.90;;;;;;;4.98;78.09;97690.86;1717991;81;26070;-91
2021/10/02 03:30:32;;;;;;;7.97;5.55;;;;;;;4.87;78.03;97687.70;1730471;82;25286;-89
2021/10/02 03:32:59;;;;;;;8.53;5.35;;;;;;;4.78;78.17;97682.03;1730214;82;25829;-92
2021/10/02 03:35:26;;;;;;;11.40;5.80;;;;;;;4.79;78.45;97685.88;1725070;82;26390;-87
2021/10/02 03:37:53;;;;;;;9.85;5.55;;;;;;;4.81;78.54;97685.22;1729859;81;27456;-93
2021/10/02 03:40:21;;;;;;;8.88;5.78;;;;;;;4.76;78.52;97682.70;1728121;82;25803;-91
2021/10/02 03:42:54;;;;;;;9.45;5.83;;;;;;;4.76;78.59;97684.87;1714846;81;26402;-85
2021/10/02 03:45:24;;;;;;;9.40;5.55;;;;;;;4.76;78.68;97677.34;1727795;82;25797;-92
2021/10/02 03:47:51;;;;;;;9.50;5.72;;;;;;;4.79;78.77;97679.20;1731935;82;25848;-86
2021/10/02 03:50:18;;;;;;;9.13;5.97;;;;;;;4.81;78.71;97671.01;1731879;81;27544;-91
2021/10/02 03:52:45;;;;;;;9.65;6.40;;;;;;;4.75;78.70;97675.67;1731796;82;25759;-86
2021/10/02 03:55:14;;;;;;;13.55;7.40;;;;;;;4.69;78.78;97670.52;1731897;82;25725;-90
2021/10/02 03:57:42;;;;;;;11.48;6.80;;;;;;;4.66;78.96;97669.00;1728046;82;25783;-86
2021/10/02 04:00:11;;;;;;;12.15;6.58;;;;;;;4.67;79.05;97673.35;1712376;81;26425;-86
2021/10/02 04:02:39;;;;;;;12.25;7.12;;;;;;;4.71;79.13;97671.98;1723295;81;28261;-88
2021/10/02 04:05:06;;;;;;;13.55;7.15;;;;;;;4.74;79.12;97674.00;1710148;81;25988;-90
2021/10/02 04:07:33;;;;;;;18.70;8.23;;;;;;;4.74;79.05;97676.67;1728003;81;26277;-86
2021/10/02 04:09:59;;;;;;;14.43;7.65;;;;;;;4.77;78.99;97680.36;1718409;81;26484;-91
2021/10/02 04:12:26;;;;;;;10.25;6.55;;;;;;;4.77;78.93;97675.01;1713422;81;25802;-88
2021/10/02 04:14:53;;;;;;;8.55;6.35;;;;;;;4.77;78.87;97680.36;1730756;81;27190;-86
2021/10/02 04:17:19;;;;;;;9.38;6.22;;;;;;;4.74;78.85;97678.02;1712574;81;26008;-93
2021/10/02 04:19:46;;;;;;;11.03;6.92;;;;;;;4.75;78.99;97675.67;1732774;81;25266;-85
2021/10/02 04:22:13;;;;;;;9.05;6.62;;;;;;;4.74;78.92;97672.66;1732821;81;25791;-92
2021/10/02 04:24:41;;;;;;;9.03;6.25;;;;;;;4.73;78.91;97676.34;1730902;81;25796;-90
2021/10/02 04:27:09;;;;;;;8.73;6.10;;;;;;;4.74;78.90;97678.02;1731209;81;27485;-84
2021/10/02 04:29:36;;;;;;;8.50;5.70;;;;;;;4.70;78.87;97677.53;1745684;80;25251;-85
2021/10/02 04:32:03;;;;;;;9.43;6.12;;;;;;;4.71;78.98;97677.34;1675397;82;26053;-89
2021/10/02 04:34:30;;;;;;;11.70;5.92;;;;;;;4.71;79.05;97676.00;1726125;81;25791;-86
2021/10/02 04:36:56;;;;;;;10.43;6.37;;;;;;;4.75;79.11;97677.02;1732784;81;26161;-87
2021/10/02 04:39:23;;;;;;;13.98;7.03;;;;;;;4.75;79.09;97677.02;1732796;81;27548;-88
2021/10/02 04:41:49;;;;;;;11.30;6.33;;;;;;;4.66;79.01;97674.35;1723509;81;25800;-86
2021/10/02 04:44:16;;;;;;;16.57;5.97;;;;;;;4.62;79.12;97673.00;1732716;81;26512;-85
2021/10/02 04:46:42;;;;;;;10.10;5.25;;;;;;;4.56;79.20;97675.03;1722392;81;25817;-87
2021/10/02 04:49:09;;;;;;;10.65;6.20;;;;;;;4.52;79.32;97673.68;1721651;82;25868;-92
2021/10/02 04:51:40;;;;;;;12.63;7.28;;;;;;;4.54;79.46;97671.68;1719603;82;28308;-91
2021/10/02 04:54:06;;;;;;;13.55;6.78;;;;;;;4.57;79.48;97679.88;1721200;82;25803;-91
2021/10/02 04:56:33;;;;;;;12.95;7.05;;;;;;;4.56;79.50;97683.05;1726510;82;25806;-89
2021/10/02 04:59:00;;;;;;;12.18;6.97;;;;;;;4.50;79.46;97679.69;1723227;82;26343;-89
2021/10/02 05:01:26;;;;;;;15.38;6.95;;;;;;;4.50;79.56;97671.67;1727356;82;25309;-88
2021/10/02 05:03:53;;;;;;;19.85;7.53;;;;;;;4.54;79.61;97678.86;1727968;82;27413;-86
2021/10/02 05:06:20;;;;;;;18.77;7.65;;;;;;;4.55;79.65;97681.38;1713441;82;25845;-85
2021/10/02 05:08:48;;;;;;;15.75;8.93;;;;;;;4.54;79.65;97675.69;1732642;82;25702;-90
2021/10/02 05:11:15;;;;;;;12.40;7.92;;;;;;;4.52;79.70;97672.34;1717309;82;25880;-91
2021/10/02 05:13:41;;;;;;;12.50;8.08;;;;;;;4.49;79.81;97672.67;1736381;82;25742;-89
2021/10/02 05:16:08;;;;;;;15.72;8.20;;;;;;;4.50;79.93;97674.34;1735469;82;27400;-88
2021/10/02 05:18:35;;;;;;;14.10;7.70;;;;;;;4.54;80.03;97678.36;1735798;81;25595;-86
2021/10/02 05:21:02;;;;;;;15.72;8.00;;;;;;;4.59;80.11;97678.68;1736677;82;25759;-85
2021/10/02 05:23:28;;;;;;;17.75;7.47;;;;;;;4.61;80.14;97678.02;1730408;82;26499;-89
2021/10/02 05:25:55;;;;;;;13.45;7.85;;;;;;;4.63;80.21;97669.83;1735897;82;25823;-85
2021/10/02 05:28:23;;;;;;;11.68;7.08;;;;;;;4.68;80.30;97672.35;1724697;80;27456;-90
2021/10/02 05:30:51;;;;;;;12.40;7.17;;;;;;;4.71;80.31;97671.16;1735779;81;25788;-85
2021/10/02 05:33:18;;;;;;;13.10;7.25;;;;;;;4.74;80.36;97679.34;1736193;82;25718;-88
2021/10/02 05:35:45;;;;;;;14.80;7.97;;;;;;;4.74;80.46;97675.34;1733927;82;26298;-89
2021/10/02 05:38:12;;;;;;;20.60;7.95;;;;;;;4.77;80.52;97672.34;1735253;81;25800;-86
2021/10/02 05:40:39;;;;;;;12.53;7.72;;;;;;;4.83;80.65;97678.36;1737787;80;27459;-85
2021/10/02 05:43:05;;;;;;;16.23;8.25;;;;;;;4.92;80.72;97674.67;1737690;82;25741;-92
2021/10/02 05:45:32;;;;;;;19.48;10.63;;;;;;;5.00;80.79;97678.66;1731226;82;25776;-93
2021/10/02 05:47:58;;;;;;;18.73;10.68;;;;;;;5.07;80.78;97676.45;1735882;82;25791;-85
2021/10/02 05:50:25;;;;;;;22.62;10.90;;;;;;;5.14;80.67;97677.97;1734561;81;25919;-91
2021/10/02 05:52:52;;;;;;;21.68;10.50;;;;;;;5.19;80.62;97680.98;1730608;82;27441;-86
2021/10/02 05:55:18;;;;;;;19.60;10.38;;;;;;;5.25;80.62;97676.77;1730471;82;26080;-85
2021/10/02 05:57:45;;;;;;;21.82;11.63;;;;;;;5.32;80.69;97670.55;1738544;82;25826;-88
2021/10/02 06:00:12;;;;;;;21.82;10.23;;;;;;;5.40;80.75;97675.89;1738741;81;25956;-86
2021/10/02 06:02:39;;;;;;;16.60;8.78;;;;;;;5.46;80.87;97672.18;1737440;82;25880;-85
2021/10/02 06:05:06;;;;;;;13.38;8.33;;;;;;;5.53;81.10;97677.19;1729439;82;28036;-85
2021/10/02 06:07:33;;;;;;;17.50;9.38;;;;;;;5.57;81.24;97671.30;1697995;82;25796;-85
2021/10/02 06:09:59;;;;;;;16.67;9.20;;;;;;;5.66;81.35;97672.95;1716893;82;25710;-90
2021/10/02 06:12:26;;;;;;;14.50;9.00;;;;;;;5.74;81.48;97666.72;1720596;82;25748;-85
2021/10/02 06:14:52;;;;;;;18.73;9.38;;;;;;;5.84;81.53;97664.66;1730352;82;25727;-85
2021/10/02 06:17:19;;;;;;;13.80;9.35;;;;;;;5.92;81.62;97663.30;1723558;82;27368;-90
2021/10/02 06:19:46;;;;;;;16.52;8.90;;;;;;;6.03;81.69;97665.61;1730287;82;25828;-85
2021/10/02 06:22:12;;;;;;;12.47;8.65;;;;;;;6.11;81.86;97664.20;1718814;82;25837;-85
2021/10/02 06:24:39;;;;;;;14.95;8.35;;;;;;;6.22;81.97;97662.13;1736021;82;26315;-85
2021/10/02 06:27:06;;;;;;;16.40;8.15;;;;;;;6.30;82.00;97672.78;1735921;82;25776;-86
2021/10/02 06:29:33;;;;;;;11.10;8.05;;;;;;;6.40;82.18;97669.39;1736988;82;28012;-93
2021/10/02 06:32:00;;;;;;;14.80;7.55;;;;;;;6.51;82.26;97675.67;1727740;82;26078;-87
2021/10/02 06:34:27;;;;;;;13.25;7.45;;;;;;;6.63;82.28;97670.21;1737724;81;25483;-86
2021/10/02 06:36:53;;;;;;;11.10;7.55;;;;;;;6.75;82.28;97667.94;1727322;82;25672;-86
2021/10/02 06:39:20;;;;;;;13.58;7.75;;;;;;;6.86;82.32;97665.65;1730848;82;25850;-86
2021/10/02 06:41:46;;;;;;;16.75;8.30;;;;;;;7.00;82.39;97664.52;1728600;82;27361;-86
2021/10/02 06:44:13;;;;;;;14.98;9.50;;;;;;;7.15;82.49;97663.50;1709301;81;25829;-87
2021/10/02 06:46:40;;;;;;;17.02;8.18;;;;;;;7.27;82.49;97670.59;1709951;82;25642;-91
2021/10/02 06:49:06;;;;;;;15.32;7.72;;;;;;;7.40;82.53;97666.77;1734053;82;25735;-93
2021/10/02 06:51:33;;;;;;;11.90;7.30;;;;;;;7.55;82.63;97663.57;1706972;82;25879;-87
2021/10/02 06:53:59;;;;;;;12.18;6.97;;;;;;;7.70;82.78;97662.23;1737304;82;27373;-87
2021/10/02 06:56:26;;;;;;;9.18;6.25;;;;;;;7.85;82.78;97667.05;1718809;82;25297;-89
2021/10/02 06:58:53;;;;;;;8.65;7.00;;;;;;;8.01;82.87;97659.28;1716958;82;25755;-89
2021/10/02 07:01:19;;;;;;;11.28;8.15;;;;;;;8.20;83.02;97658.70;1735097;82;25915;-87
2021/10/02 07:03:46;;;;;;;13.58;9.10;;;;;;;8.42;83.02;97654.70;1733768;82;25373;-95
2021/10/02 07:06:12;;;;;;;12.33;8.20;;;;;;;8.64;83.02;97663.09;1733021;82;27394;-94
2021/10/02 07:08:39;;;;;;;14.38;9.15;;;;;;;8.85;82.93;97664.41;1733484;82;25843;-87
2021/10/02 07:11:06;;;;;;;14.70;8.70;;;;;;;9.07;82.83;97661.17;1721166;82;25300;-89
2021/10/02 07:13:32;;;;;;;14.47;8.63;;;;;;;9.30;82.72;97666.30;1734417;82;25833;-96
2021/10/02 07:15:59;;;;;;;10.18;7.78;;;;;;;9.52;82.59;97660.36;1734142;82;25343;-91
2021/10/02 07:18:26;;;;;;;11.78;7.65;;;;;;;9.76;82.61;97662.56;1734216;82;27583;-90
2021/10/02 07:20:53;;;;;;;14.38;9.15;;;;;;;10.02;82.52;97651.06;1705389;84;25287;-88
2021/10/02 07:23:20;;;;;;;14.03;8.58;;;;;;;10.29;82.39;97652.82;1728580;82;25754;-88
2021/10/02 07:25:48;;;;;;;15.90;10.10;;;;;;;10.57;82.21;97657.25;1734701;82;26611;-90
2021/10/02 07:28:15;;;;;;;13.60;10.00;;;;;;;10.81;81.76;97658.84;1703048;84;25805;-90
2021/10/02 07:30:41;;;;;;;16.07;10.68;;;;;;;11.11;81.48;97655.70;1719945;82;27369;-87
2021/10/02 07:33:08;;;;;;;14.75;10.18;;;;;;;11.40;81.34;97657.14;1712385;82;25283;-92
2021/10/02 07:35:35;;;;;;;18.02;9.93;;;;;;;11.70;81.02;97665.62;1703889;82;25920;-92
2021/10/02 07:38:01;;;;;;;15.28;10.25;;;;;;;12.01;80.83;97660.86;1720039;81;25880;-89
2021/10/02 07:40:29;;;;;;;14.03;9.35;;;;;;;12.33;80.14;97655.81;1724813;82;25700;-94
2021/10/02 07:42:57;;;;;;;12.43;10.05;;;;;;;12.63;79.71;97660.96;1707256;82;27452;-88
2021/10/02 07:45:26;;;;;;;18.37;12.23;;;;;;;12.93;79.50;97664.39;1716843;82;25787;-86
2021/10/02 07:47:54;;;;;;;14.40;11.10;;;;;;;13.17;78.75;97655.47;1704500;82;25955;-95
2021/10/02 07:50:23;;;;;;;16.00;11.35;;;;;;;13.50;78.61;97654.35;1728763;81;25722;-95
2021/10/02 07:52:52;;;;;;;14.50;10.72;;;;;;;13.83;78.20;97653.47;1732068;82;25805;-93
2021/10/02 07:55:18;;;;;;;13.05;9.93;;;;;;;14.14;77.67;97650.27;1712043;81;27380;-91
2021/10/02 07:57:47;;;;;;;14.40;9.68;;;;;;;14.46;77.21;97653.14;1725778;82;25484;-93
2021/10/02 08:00:18;;;;;;;12.95;9.53;;;;;;;14.76;76.57;97649.86;1724054;81;25778;-91
2021/10/02 08:02:49;;;;;;;14.90;10.50;;;;;;;15.11;76.19;97647.22;1719611;82;25855;-90
2021/10/02 08:05:16;;;;;;;14.53;10.75;;;;;;;15.48;75.48;97645.12;1709777;82;25721;-91
2021/10/02 08:07:46;;;;;;;11.85;10.15;;;;;;;15.86;74.89;97639.74;1700751;82;28200;-90
2021/10/02 08:10:16;;;;;;;13.78;10.50;;;;;;;16.12;74.10;97646.03;1685612;83;26032;-87
2021/10/02 08:12:43;;;;;;;14.75;10.82;;;;;;;16.34;73.39;97641.28;1699889;81;25793;-89
2021/10/02 08:15:11;;;;;;;15.35;10.85;;;;;;;16.60;73.16;97647.52;1710945;81;25691;-91
2021/10/02 08:17:41;;;;;;;15.45;10.58;;;;;;;16.85;72.71;97643.10;1719880;81;25772;-86
2021/10/02 08:20:13;;;;;;;13.75;11.05;;;;;;;16.99;71.93;97642.26;1707491;81;27400;-86
2021/10/02 08:22:45;;;;;;;15.15;10.70;;;;;;;17.20;71.43;97646.97;1699800;81;25847;-89
2021/10/02 08:25:14;;;;;;;15.65;11.80;;;;;;;17.40;70.61;97645.92;1711870;81;25821;-87
2021/10/02 08:27:42;;;;;;;15.20;11.33;;;;;;;17.57;70.07;97650.84;1708062;81;26311;-91
2021/10/02 08:30:12;;;;;;;14.93;10.75;;;;;;;17.68;69.31;97648.30;1725715;82;25761;-86
2021/10/02 08:32:38;;;;;;;17.15;11.08;;;;;;;17.82;69.13;97652.33;1708666;81;28200;-90
2021/10/02 08:35:08;;;;;;;14.63;11.00;;;;;;;17.95;68.22;97650.06;1707711;81;25988;-89
2021/10/02 08:37:35;;;;;;;14.47;10.25;;;;;;;17.95;67.47;97646.50;1721357;81;25765;-90
2021/10/02 08:40:06;;;;;;;15.50;10.68;;;;;;;18.08;67.30;97638.48;1725714;83;26461;-93
2021/10/02 08:42:40;;;;;;;14.58;11.15;;;;;;;18.25;66.93;97643.33;1698431;83;25778;-95
2021/10/02 08:45:08;;;;;;;14.43;11.08;;;;;;;18.31;66.46;97643.16;1698056;81;28936;-93
2021/10/02 08:47:39;;;;;;;18.05;10.90;;;;;;;18.41;66.12;97638.87;1711428;81;25765;-93
2021/10/02 08:50:09;;;;;;;15.30;10.95;;;;;;;18.53;65.73;97631.36;1727238;81;25920;-92
2021/10/02 08:52:37;;;;;;;15.25;11.60;;;;;;;18.59;65.19;97633.12;1727158;83;25766;-92
2021/10/02 08:55:06;;;;;;;12.28;10.98;;;;;;;18.65;64.62;97630.17;1706689;82;25816;-90
2021/10/02 08:57:38;;;;;;;34.88;13.22;;;;;;;18.72;64.06;97621.74;1728025;82;28368;-93
2021/10/02 09:00:11;;;;;;;21.93;11.77;;;;;;;18.86;64.39;97627.09;1705938;81;25818;-89
2021/10/02 09:02:38;;;;;;;23.30;12.28;;;;;;;19.03;64.03;97626.44;1706341;81;25849;-93
2021/10/02 09:05:08;;;;;;;19.82;12.07;;;;;;;19.18;63.66;97622.19;1724459;82;25852;-93
2021/10/02 09:07:35;;;;;;;15.90;11.22;;;;;;;19.33;63.45;97622.30;1750700;81;25772;-91
2021/10/02 09:10:05;;;;;;;12.33;10.63;;;;;;;19.51;63.02;97616.45;1723908;82;27433;-94
2021/10/02 09:12:33;;;;;;;15.65;11.10;;;;;;;19.57;62.39;97620.03;1703253;82;25782;-93
2021/10/02 09:15:02;;;;;;;11.40;9.93;;;;;;;19.60;62.00;97618.14;1703133;82;25793;-89
2021/10/02 09:17:28;;;;;;;15.40;11.18;;;;;;;19.53;61.47;97617.02;1701128;82;25773;-96
2021/10/02 09:19:54;;;;;;;20.02;11.15;;;;;;;19.47;60.85;97615.28;1732582;81;25240;-95
2021/10/02 09:22:22;;;;;;;16.37;11.28;;;;;;;19.54;60.99;97620.04;1732444;81;27441;-95
2021/10/02 09:24:51;;;;;;;18.60;11.15;;;;;;;19.58;60.41;97615.66;1732119;81;25745;-92
2021/10/02 09:27:24;;;;;;;18.98;10.53;;;;;;;19.65;60.32;97617.64;1732301;82;25810;-92
2021/10/02 09:30:08;;;;;;;13.18;9.93;;;;;;;19.74;60.25;97614.68;1731489;82;25763;-93
2021/10/02 09:32:41;;;;;;;13.32;10.60;;;;;;;19.89;60.10;97615.32;1750484;80;25745;-87
2021/10/02 09:35:23;;;;;;;13.78;10.32;;;;;;;20.01;59.61;97619.22;1702989;82;27394;-87
2021/10/02 09:37:55;;;;;;;12.98;10.40;;;;;;;20.05;59.25;97617.57;1703024;82;26413;-96
2021/10/02 09:40:25;;;;;;;15.72;11.33;;;;;;;20.10;59.40;97616.23;1720363;82;25698;-90
2021/10/02 09:42:58;;;;;;;20.62;11.00;;;;;;;20.21;59.09;97621.21;1704944;82;26167;-90
2021/10/02 09:45:38;;;;;;;13.90;11.78;;;;;;;20.23;58.71;97615.75;1731446;82;25788;-94
2021/10/02 09:48:12;;;;;;;16.25;10.68;;;;;;;20.23;58.07;97613.01;1723735;80;27542;-95
2021/10/02 09:50:48;;;;;;;12.88;10.80;;;;;;;20.28;58.16;97614.41;1732065;81;25829;-91
2021/10/02 09:53:19;;;;;;;14.13;10.08;;;;;;;20.44;58.12;97609.27;1732337;81;26289;-92
2021/10/02 09:55:51;;;;;;;12.63;10.10;;;;;;;20.56;57.98;97606.28;1725463;81;25779;-94
2021/10/02 09:58:34;;;;;;;11.60;9.88;;;;;;;20.76;57.35;97602.78;1702795;82;25772;-93
2021/10/02 10:01:04;;;;;;;13.58;10.25;;;;;;;20.75;56.93;97606.62;1729303;82;28054;-90
2021/10/02 10:03:46;;;;;;;14.45;10.98;;;;;;;20.75;56.90;97602.50;1714414;81;25713;-95
2021/10/02 10:06:20;;;;;;;10.88;9.78;;;;;;;20.75;56.90;97602.50;1731235;81;25835;-90
2021/10/02 10:09:11;;;;;;;16.97;10.32;;;;;;;20.79;56.76;97602.22;1722885;82;26479;-92
2021/10/02 10:11:47;;;;;;;12.68;10.32;;;;;;;20.77;56.05;97603.06;1714730;82;25851;-94
2021/10/02 10:14:25;;;;;;;11.35;9.48;;;;;;;20.78;56.26;97594.53;1725770;82;27402;-90
2021/10/02 10:16:54;;;;;;;11.30;9.70;;;;;;;20.76;55.73;97597.30;1712683;81;25852;-92
2021/10/02 10:19:27;;;;;;;11.22;9.40;;;;;;;20.72;55.39;97593.44;1748640;80;25772;-91
2021/10/02 10:22:08;;;;;;;14.03;9.65;;;;;;;20.67;55.29;97589.30;1731334;81;26405;-90
2021/10/02 10:24:38;;;;;;;11.70;8.30;;;;;;;20.51;53.93;97569.81;1732409;81;25679;-89
2021/10/02 10:27:07;;;;;;;10.55;8.20;;;;;;;20.51;53.93;97569.81;1732603;82;28122;-89
2021/10/02 10:29:44;;;;;;;13.18;10.38;;;;;;;20.66;53.57;97591.77;1731979;81;25488;-90
2021/10/02 10:32:12;;;;;;;10.20;8.03;;;;;;;20.54;53.87;97570.08;1701296;82;25259;-86
2021/10/02 10:34:41;;;;;;;10.23;8.75;;;;;;;20.81;53.56;97590.42;1708594;82;26432;-90
2021/10/02 10:37:12;;;;;;;12.30;8.67;;;;;;;20.85;53.02;97586.05;1714205;81;25739;-92
2021/10/02 10:39:39;;;;;;;10.68;9.45;;;;;;;20.88;52.84;97578.66;1702752;84;28304;-89
2021/10/02 10:42:07;;;;;;;12.30;9.43;;;;;;;20.84;52.74;97584.41;1719682;82;25306;-87
2021/10/02 10:44:34;;;;;;;12.28;9.08;;;;;;;20.79;52.46;97581.09;1732828;81;25252;-86
2021/10/02 10:47:02;;;;;;;10.60;9.50;;;;;;;20.86;52.72;97586.33;1732806;81;25953;-89
2021/10/02 10:49:28;;;;;;;12.45;7.42;;;;;;;20.81;51.75;97582.20;1732214;81;25746;-92
2021/10/02 10:52:01;;;;;;;16.17;9.45;;;;;;;20.73;51.05;97575.89;1732330;81;28130;-91
2021/10/02 10:54:28;;;;;;;10.08;8.50;;;;;;;20.65;51.54;97567.63;1731805;81;25791;-91
2021/10/02 10:56:54;;;;;;;12.88;10.70;;;;;;;20.72;51.99;97571.49;1727095;81;25772;-90
2021/10/02 10:59:22;;;;;;;11.05;9.28;;;;;;;20.84;52.79;97572.06;1716965;82;26643;-93
2021/10/02 11:01:50;;;;;;;11.63;9.00;;;;;;;20.94;52.60;97563.83;1710380;82;25805;-88
2021/10/02 11:04:36;;;;;;;12.45;8.28;;;;;;;20.94;52.28;97552.02;1691958;83;28239;-92
2021/10/02 11:07:05;;;;;;;9.03;7.65;;;;;;;20.99;51.38;97558.36;1705049;81;25722;-91
2021/10/02 11:09:43;;;;;;;11.70;8.63;;;;;;;20.98;51.17;97556.70;1710837;81;25821;-91
2021/10/02 11:12:15;;;;;;;12.10;8.35;;;;;;;20.92;51.64;97533.09;1703310;81;25742;-91
2021/10/02 11:14:54;;;;;;;8.48;7.60;;;;;;;20.92;51.64;97533.09;1708637;81;25698;-93
2021/10/02 11:17:35;;;;;;;11.05;8.23;;;;;;;21.05;50.99;97540.77;1702124;81;28340;-95
2021/10/02 11:20:22;;;;;;;9.10;7.87;;;;;;;21.05;50.99;97540.77;1707835;81;26256;-90
2021/10/02 11:23:29;;;;;;;9.65;7.97;;;;;;;21.05;50.19;97550.38;1711141;81;25807;-92
2021/10/02 11:26:14;;;;;;;10.48;8.20;;;;;;;21.05;50.11;97540.77;1708166;83;26813;-92
2021/10/02 11:28:42;;;;;;;8.45;7.65;;;;;;;21.12;50.31;97537.22;1686077;81;25924;-92
2021/10/02 11:31:15;;;;;;;15.98;9.20;;;;;;;21.20;50.23;97541.34;1721421;83;27627;-91
2021/10/02 11:33:58;;;;;;;12.90;8.45;;;;;;;21.18;50.33;97538.02;1715465;83;25983;-94
2021/10/02 11:36:40;;;;;;;;;;;;;;;21.24;50.73;97541.08;1728300;81;26391;-95
2021/10/02 11:39:18;;;;;;;10.95;7.80;;;;;;;21.32;50.43;97535.56;1699093;81;25777;-96
2021/10/02 11:41:54;;;;;;;9.75;7.37;;;;;;;21.37;50.70;97531.45;1698256;81;25811;-90
2021/10/02 11:44:35;;;;;;;12.88;7.20;;;;;;;21.23;49.88;97511.16;1714390;83;27444;-85
2021/10/02 11:47:38;;;;;;;9.83;6.90;;;;;;;21.23;49.88;97511.16;1727336;82;25728;-90
2021/10/02 11:50:14;;;;;;;;;;;;;;;21.31;49.49;97530.63;1721988;83;25788;-91
2021/10/02 11:52:53;;;;;;;8.28;6.83;;;;;;;21.35;48.46;97526.78;1723448;83;26512;-91
2021/10/02 11:55:44;;;;;;;10.50;6.62;;;;;;;21.26;49.29;97495.48;1721129;81;25783;-91
2021/10/02 11:58:15;;;;;;;11.65;6.95;;;;;;;21.52;49.08;97523.16;1718515;81;27379;-85
2021/10/02 12:00:55;;;;;;;10.23;7.05;;;;;;;21.56;49.09;97518.77;1726173;83;26377;-91
2021/10/02 12:03:31;;;;;;;9.55;6.80;;;;;;;21.60;48.28;97521.79;1717253;81;26487;-91
2021/10/02 12:06:03;;;;;;;7.80;6.90;;;;;;;21.51;47.80;97532.50;1701643;83;25699;-89
2021/10/02 12:08:32;;;;;;;10.33;6.13;;;;;;;21.34;47.70;97512.78;1709193;82;26355;-90
2021/10/02 12:11:11;;;;;;;11.63;6.50;;;;;;;21.29;47.76;97516.90;1721351;83;27387;-93
2021/10/02 12:13:45;;;;;;;9.98;6.97;;;;;;;21.11;47.59;97494.95;1713581;83;25845;-89
2021/10/02 12:16:22;;;;;;;10.38;6.78;;;;;;;21.21;47.58;97521.04;1705970;81;25394;-88
2021/10/02 12:19:07;;;;;;;11.78;6.90;;;;;;;21.22;47.76;97515.00;1725900;81;25969;-92
2021/10/02 12:21:44;;;;;;;12.43;7.28;;;;;;;21.17;47.90;97513.86;1721960;81;25953;-96
2021/10/02 12:24:18;;;;;;;12.35;8.40;;;;;;;20.95;47.78;97494.13;1686833;81;27784;-93
2021/10/02 12:27:01;;;;;;;9.15;6.70;;;;;;;20.95;47.78;97494.13;1713645;81;25760;-88
2021/10/02 12:29:38;;;;;;;11.12;6.08;;;;;;;21.03;47.65;97512.78;1715000;81;25689;-93
2021/10/02 12:32:21;;;;;;;8.80;6.72;;;;;;;20.94;47.51;97511.69;1705149;81;25782;-90
2021/10/02 12:34:52;;;;;;;10.18;6.67;;;;;;;20.91;47.15;97508.13;1693384;83;25942;-90
2021/10/02 12:37:27;;;;;;;6.95;6.30;;;;;;;20.87;47.40;97511.16;1712922;81;28029;-90